Dallas, Texas
Traffic Map
Current Weather Conditions
Dallas, Texas
Overcast Thunderstorm
Overcast

Feels Like: 6°
Wind Chill: Ceiling: 3200
Heat Index: Visibility: 8mi
Dew Point: Wind: 8mph
Humidity: 71% Direction: 130° (SE)
Pressure: 30.1in Gusts: 0mph
Raw Report DataKDAL 172142Z 13007KT 8SM -TSRA FEW016 OVC032 08/03 A3010 RMK AO2 RAB36 TSB41 OCNL LTGICCG TS SW-NW MOV NE P0000 T00780028
Traffic Incident Summary
Active as of:
Severity:
Category:
InformationThere was an issue retrieving the traffic information for this location. Please try a different location or try again shortly.
Advertisements
Track Severe Weather on mobile